sensor_id;sensor_type;location;lat;lon;timestamp;P1;durP1;ratioP1;P2;durP2;ratioP2
75090;SDS011;63674;48.048;8.306;2024-01-16T00:00:11;8.73;;;2.75;;
75090;SDS011;63674;48.048;8.306;2024-01-16T00:02:41;10.57;;;3.20;;
75090;SDS011;63674;48.048;8.306;2024-01-16T00:05:10;8.52;;;2.72;;
75090;SDS011;63674;48.048;8.306;2024-01-16T00:07:39;8.02;;;2.80;;
75090;SDS011;63674;48.048;8.306;2024-01-16T00:10:09;8.37;;;3.00;;
75090;SDS011;63674;48.048;8.306;2024-01-16T00:12:38;10.32;;;3.33;;
75090;SDS011;63674;48.048;8.306;2024-01-16T00:15:08;7.80;;;2.63;;
75090;SDS011;63674;48.048;8.306;2024-01-16T00:17:36;10.07;;;2.92;;
75090;SDS011;63674;48.048;8.306;2024-01-16T00:20:06;11.05;;;3.53;;
75090;SDS011;63674;48.048;8.306;2024-01-16T00:22:36;9.87;;;3.20;;
75090;SDS011;63674;48.048;8.306;2024-01-16T00:25:05;9.68;;;3.35;;
75090;SDS011;63674;48.048;8.306;2024-01-16T00:27:36;10.50;;;3.72;;
75090;SDS011;63674;48.048;8.306;2024-01-16T00:30:05;12.05;;;3.22;;
75090;SDS011;63674;48.048;8.306;2024-01-16T00:32:35;17.95;;;4.18;;
75090;SDS011;63674;48.048;8.306;2024-01-16T00:35:04;14.33;;;3.80;;
75090;SDS011;63674;48.048;8.306;2024-01-16T00:37:33;11.73;;;3.08;;
75090;SDS011;63674;48.048;8.306;2024-01-16T00:40:03;8.63;;;3.00;;
75090;SDS011;63674;48.048;8.306;2024-01-16T00:42:36;9.77;;;2.88;;
75090;SDS011;63674;48.048;8.306;2024-01-16T00:45:05;12.57;;;3.40;;
75090;SDS011;63674;48.048;8.306;2024-01-16T00:47:34;10.30;;;3.10;;
75090;SDS011;63674;48.048;8.306;2024-01-16T00:50:03;9.85;;;3.13;;
75090;SDS011;63674;48.048;8.306;2024-01-16T00:52:31;12.27;;;3.67;;
75090;SDS011;63674;48.048;8.306;2024-01-16T00:55:00;10.25;;;3.30;;
75090;SDS011;63674;48.048;8.306;2024-01-16T00:57:29;10.13;;;2.70;;
75090;SDS011;63674;48.048;8.306;2024-01-16T00:59:59;9.20;;;2.67;;
75090;SDS011;63674;48.048;8.306;2024-01-16T01:02:28;10.30;;;3.00;;
75090;SDS011;63674;48.048;8.306;2024-01-16T01:04:56;8.77;;;3.00;;
75090;SDS011;63674;48.048;8.306;2024-01-16T01:07:25;11.63;;;2.85;;
75090;SDS011;63674;48.048;8.306;2024-01-16T01:09:53;10.75;;;3.00;;
75090;SDS011;63674;48.048;8.306;2024-01-16T01:12:22;14.23;;;2.57;;
75090;SDS011;63674;48.048;8.306;2024-01-16T01:14:50;8.60;;;2.70;;
75090;SDS011;63674;48.048;8.306;2024-01-16T01:17:21;9.25;;;2.75;;
75090;SDS011;63674;48.048;8.306;2024-01-16T01:19:49;8.30;;;2.47;;
75090;SDS011;63674;48.048;8.306;2024-01-16T01:22:18;7.80;;;2.08;;
75090;SDS011;63674;48.048;8.306;2024-01-16T01:24:46;8.97;;;2.70;;
75090;SDS011;63674;48.048;8.306;2024-01-16T01:27:15;9.18;;;2.38;;
75090;SDS011;63674;48.048;8.306;2024-01-16T01:29:44;8.70;;;2.58;;
75090;SDS011;63674;48.048;8.306;2024-01-16T01:32:12;10.32;;;3.30;;
75090;SDS011;63674;48.048;8.306;2024-01-16T01:34:42;11.30;;;3.17;;
75090;SDS011;63674;48.048;8.306;2024-01-16T01:37:11;11.13;;;3.27;;
75090;SDS011;63674;48.048;8.306;2024-01-16T01:39:40;9.88;;;3.25;;
75090;SDS011;63674;48.048;8.306;2024-01-16T01:42:09;9.77;;;2.85;;
75090;SDS011;63674;48.048;8.306;2024-01-16T01:44:38;12.85;;;2.58;;
75090;SDS011;63674;48.048;8.306;2024-01-16T01:47:08;10.55;;;2.83;;
75090;SDS011;63674;48.048;8.306;2024-01-16T01:49:36;10.80;;;2.90;;
75090;SDS011;63674;48.048;8.306;2024-01-16T01:52:07;9.40;;;2.47;;
75090;SDS011;63674;48.048;8.306;2024-01-16T01:54:37;11.27;;;3.40;;
75090;SDS011;63674;48.048;8.306;2024-01-16T01:57:07;8.60;;;2.33;;
75090;SDS011;63674;48.048;8.306;2024-01-16T01:59:36;9.48;;;2.50;;
75090;SDS011;63674;48.048;8.306;2024-01-16T02:02:05;10.00;;;1.80;;
75090;SDS011;63674;48.048;8.306;2024-01-16T02:04:34;8.30;;;2.47;;
75090;SDS011;63674;48.048;8.306;2024-01-16T02:07:04;7.80;;;2.28;;
75090;SDS011;63674;48.048;8.306;2024-01-16T02:09:34;10.00;;;2.20;;
75090;SDS011;63674;48.048;8.306;2024-01-16T02:12:04;9.60;;;2.65;;
75090;SDS011;63674;48.048;8.306;2024-01-16T02:14:34;8.83;;;2.30;;
75090;SDS011;63674;48.048;8.306;2024-01-16T02:17:03;7.18;;;1.88;;
75090;SDS011;63674;48.048;8.306;2024-01-16T02:19:32;6.43;;;2.08;;
75090;SDS011;63674;48.048;8.306;2024-01-16T02:22:01;8.45;;;2.30;;
75090;SDS011;63674;48.048;8.306;2024-01-16T02:24:57;10.10;;;2.55;;
75090;SDS011;63674;48.048;8.306;2024-01-16T02:27:44;7.10;;;2.30;;
75090;SDS011;63674;48.048;8.306;2024-01-16T02:30:32;7.07;;;1.90;;
75090;SDS011;63674;48.048;8.306;2024-01-16T02:33:20;10.35;;;2.60;;
75090;SDS011;63674;48.048;8.306;2024-01-16T02:36:07;8.20;;;2.88;;
75090;SDS011;63674;48.048;8.306;2024-01-16T02:38:54;9.20;;;2.65;;
75090;SDS011;63674;48.048;8.306;2024-01-16T02:41:43;8.70;;;2.33;;
75090;SDS011;63674;48.048;8.306;2024-01-16T02:44:30;8.77;;;2.42;;
75090;SDS011;63674;48.048;8.306;2024-01-16T02:47:18;8.85;;;2.75;;
75090;SDS011;63674;48.048;8.306;2024-01-16T02:50:05;7.65;;;2.25;;
75090;SDS011;63674;48.048;8.306;2024-01-16T02:52:55;7.95;;;2.30;;
75090;SDS011;63674;48.048;8.306;2024-01-16T02:55:42;8.80;;;2.67;;
75090;SDS011;63674;48.048;8.306;2024-01-16T02:58:30;9.07;;;2.63;;
75090;SDS011;63674;48.048;8.306;2024-01-16T03:01:17;8.50;;;2.53;;
75090;SDS011;63674;48.048;8.306;2024-01-16T03:04:05;7.82;;;2.22;;
75090;SDS011;63674;48.048;8.306;2024-01-16T03:06:52;9.27;;;2.50;;
75090;SDS011;63674;48.048;8.306;2024-01-16T03:09:39;8.07;;;2.03;;
75090;SDS011;63674;48.048;8.306;2024-01-16T03:12:27;7.75;;;2.10;;
75090;SDS011;63674;48.048;8.306;2024-01-16T03:15:15;8.50;;;2.65;;
75090;SDS011;63674;48.048;8.306;2024-01-16T03:18:03;10.98;;;2.40;;
75090;SDS011;63674;48.048;8.306;2024-01-16T03:20:50;7.45;;;2.10;;
75090;SDS011;63674;48.048;8.306;2024-01-16T03:23:38;6.67;;;1.60;;
75090;SDS011;63674;48.048;8.306;2024-01-16T03:26:25;8.02;;;2.13;;
75090;SDS011;63674;48.048;8.306;2024-01-16T03:29:12;7.47;;;2.25;;
75090;SDS011;63674;48.048;8.306;2024-01-16T03:32:01;10.80;;;2.60;;
75090;SDS011;63674;48.048;8.306;2024-01-16T03:34:49;9.13;;;2.50;;
75090;SDS011;63674;48.048;8.306;2024-01-16T03:37:17;8.53;;;2.10;;
75090;SDS011;63674;48.048;8.306;2024-01-16T03:39:46;12.68;;;2.17;;
75090;SDS011;63674;48.048;8.306;2024-01-16T03:42:16;8.80;;;2.10;;
75090;SDS011;63674;48.048;8.306;2024-01-16T03:44:45;9.45;;;2.72;;
75090;SDS011;63674;48.048;8.306;2024-01-16T03:47:15;8.02;;;2.38;;
75090;SDS011;63674;48.048;8.306;2024-01-16T03:49:43;12.20;;;2.27;;
75090;SDS011;63674;48.048;8.306;2024-01-16T03:52:13;9.45;;;2.00;;
75090;SDS011;63674;48.048;8.306;2024-01-16T03:54:41;9.48;;;2.50;;
75090;SDS011;63674;48.048;8.306;2024-01-16T03:57:10;9.73;;;2.20;;
75090;SDS011;63674;48.048;8.306;2024-01-16T03:59:38;7.18;;;2.03;;
75090;SDS011;63674;48.048;8.306;2024-01-16T04:02:07;9.73;;;2.20;;
75090;SDS011;63674;48.048;8.306;2024-01-16T04:04:37;9.35;;;2.55;;
75090;SDS011;63674;48.048;8.306;2024-01-16T04:07:06;7.88;;;2.47;;
75090;SDS011;63674;48.048;8.306;2024-01-16T04:09:34;7.97;;;2.30;;
75090;SDS011;63674;48.048;8.306;2024-01-16T04:12:03;7.97;;;2.30;;
75090;SDS011;63674;48.048;8.306;2024-01-16T04:14:34;19.10;;;6.53;;
75090;SDS011;63674;48.048;8.306;2024-01-16T04:17:03;15.32;;;5.05;;
75090;SDS011;63674;48.048;8.306;2024-01-16T04:19:32;19.75;;;6.60;;
75090;SDS011;63674;48.048;8.306;2024-01-16T04:22:02;19.42;;;5.32;;
75090;SDS011;63674;48.048;8.306;2024-01-16T04:24:32;18.40;;;4.57;;
75090;SDS011;63674;48.048;8.306;2024-01-16T04:27:01;10.13;;;3.40;;
75090;SDS011;63674;48.048;8.306;2024-01-16T04:29:30;13.07;;;3.70;;
75090;SDS011;63674;48.048;8.306;2024-01-16T04:31:59;12.75;;;4.32;;
75090;SDS011;63674;48.048;8.306;2024-01-16T04:34:28;11.60;;;3.08;;
75090;SDS011;63674;48.048;8.306;2024-01-16T04:36:56;13.10;;;2.78;;
75090;SDS011;63674;48.048;8.306;2024-01-16T04:39:26;9.23;;;2.30;;
75090;SDS011;63674;48.048;8.306;2024-01-16T04:41:55;8.93;;;2.15;;
75090;SDS011;63674;48.048;8.306;2024-01-16T04:44:23;8.00;;;2.55;;
75090;SDS011;63674;48.048;8.306;2024-01-16T04:46:52;7.38;;;2.20;;
75090;SDS011;63674;48.048;8.306;2024-01-16T04:49:21;8.18;;;1.70;;
75090;SDS011;63674;48.048;8.306;2024-01-16T04:51:49;6.40;;;1.70;;
75090;SDS011;63674;48.048;8.306;2024-01-16T04:54:18;8.65;;;2.83;;
75090;SDS011;63674;48.048;8.306;2024-01-16T04:56:48;8.32;;;2.30;;
75090;SDS011;63674;48.048;8.306;2024-01-16T04:59:16;9.40;;;2.08;;
75090;SDS011;63674;48.048;8.306;2024-01-16T05:01:45;7.93;;;2.03;;
75090;SDS011;63674;48.048;8.306;2024-01-16T05:04:13;8.93;;;2.77;;
75090;SDS011;63674;48.048;8.306;2024-01-16T05:06:42;11.93;;;2.75;;
75090;SDS011;63674;48.048;8.306;2024-01-16T05:09:11;9.85;;;2.63;;
75090;SDS011;63674;48.048;8.306;2024-01-16T05:11:39;8.43;;;1.83;;
75090;SDS011;63674;48.048;8.306;2024-01-16T05:14:09;10.40;;;2.38;;
75090;SDS011;63674;48.048;8.306;2024-01-16T05:16:38;8.07;;;2.23;;
75090;SDS011;63674;48.048;8.306;2024-01-16T05:19:07;8.13;;;2.03;;
75090;SDS011;63674;48.048;8.306;2024-01-16T05:21:36;6.32;;;1.98;;
75090;SDS011;63674;48.048;8.306;2024-01-16T05:24:04;9.23;;;2.28;;
75090;SDS011;63674;48.048;8.306;2024-01-16T05:26:35;10.38;;;2.80;;
75090;SDS011;63674;48.048;8.306;2024-01-16T05:29:03;7.40;;;2.30;;
75090;SDS011;63674;48.048;8.306;2024-01-16T05:31:34;10.50;;;2.30;;
75090;SDS011;63674;48.048;8.306;2024-01-16T05:34:09;8.60;;;2.60;;
75090;SDS011;63674;48.048;8.306;2024-01-16T05:36:38;10.18;;;2.80;;
75090;SDS011;63674;48.048;8.306;2024-01-16T05:39:07;8.13;;;1.92;;
75090;SDS011;63674;48.048;8.306;2024-01-16T05:41:36;9.33;;;1.70;;
75090;SDS011;63674;48.048;8.306;2024-01-16T05:44:05;6.88;;;1.65;;
75090;SDS011;63674;48.048;8.306;2024-01-16T05:46:35;7.88;;;2.20;;
75090;SDS011;63674;48.048;8.306;2024-01-16T05:49:04;7.40;;;2.38;;
75090;SDS011;63674;48.048;8.306;2024-01-16T05:51:33;7.00;;;2.00;;
75090;SDS011;63674;48.048;8.306;2024-01-16T05:54:02;8.73;;;2.20;;
75090;SDS011;63674;48.048;8.306;2024-01-16T05:56:31;7.40;;;2.35;;
75090;SDS011;63674;48.048;8.306;2024-01-16T05:59:00;8.57;;;2.10;;
75090;SDS011;63674;48.048;8.306;2024-01-16T06:01:29;6.65;;;2.22;;
75090;SDS011;63674;48.048;8.306;2024-01-16T06:03:59;6.88;;;2.10;;
75090;SDS011;63674;48.048;8.306;2024-01-16T06:06:27;7.00;;;2.03;;
75090;SDS011;63674;48.048;8.306;2024-01-16T06:08:56;6.82;;;1.90;;
75090;SDS011;63674;48.048;8.306;2024-01-16T06:11:29;7.45;;;2.00;;
75090;SDS011;63674;48.048;8.306;2024-01-16T06:13:58;6.57;;;2.00;;
75090;SDS011;63674;48.048;8.306;2024-01-16T06:16:27;8.50;;;2.38;;
75090;SDS011;63674;48.048;8.306;2024-01-16T06:18:56;8.07;;;2.40;;
75090;SDS011;63674;48.048;8.306;2024-01-16T06:21:26;9.27;;;2.53;;
75090;SDS011;63674;48.048;8.306;2024-01-16T06:23:54;10.85;;;2.78;;
75090;SDS011;63674;48.048;8.306;2024-01-16T06:26:23;8.45;;;2.45;;
75090;SDS011;63674;48.048;8.306;2024-01-16T06:28:52;6.85;;;2.20;;
75090;SDS011;63674;48.048;8.306;2024-01-16T06:31:20;10.60;;;2.77;;
75090;SDS011;63674;48.048;8.306;2024-01-16T06:33:50;8.15;;;2.35;;
75090;SDS011;63674;48.048;8.306;2024-01-16T06:36:20;9.75;;;3.45;;
75090;SDS011;63674;48.048;8.306;2024-01-16T06:38:50;14.80;;;4.63;;
75090;SDS011;63674;48.048;8.306;2024-01-16T06:41:19;12.65;;;3.92;;
75090;SDS011;63674;48.048;8.306;2024-01-16T06:43:48;12.40;;;3.93;;
75090;SDS011;63674;48.048;8.306;2024-01-16T06:46:16;12.45;;;3.47;;
75090;SDS011;63674;48.048;8.306;2024-01-16T06:48:45;11.60;;;3.40;;
75090;SDS011;63674;48.048;8.306;2024-01-16T06:51:15;12.18;;;3.72;;
75090;SDS011;63674;48.048;8.306;2024-01-16T06:53:44;10.20;;;3.30;;
75090;SDS011;63674;48.048;8.306;2024-01-16T06:56:15;11.83;;;3.43;;
75090;SDS011;63674;48.048;8.306;2024-01-16T06:58:43;8.82;;;2.67;;
75090;SDS011;63674;48.048;8.306;2024-01-16T07:01:12;9.02;;;2.70;;
75090;SDS011;63674;48.048;8.306;2024-01-16T07:03:40;10.52;;;3.40;;
75090;SDS011;63674;48.048;8.306;2024-01-16T07:06:09;11.25;;;3.13;;
75090;SDS011;63674;48.048;8.306;2024-01-16T07:08:38;7.57;;;2.50;;
75090;SDS011;63674;48.048;8.306;2024-01-16T07:11:07;13.13;;;3.25;;
75090;SDS011;63674;48.048;8.306;2024-01-16T07:13:41;10.48;;;3.10;;
75090;SDS011;63674;48.048;8.306;2024-01-16T07:16:10;11.48;;;3.42;;
75090;SDS011;63674;48.048;8.306;2024-01-16T07:18:40;11.68;;;3.45;;
75090;SDS011;63674;48.048;8.306;2024-01-16T07:21:16;10.40;;;2.50;;
75090;SDS011;63674;48.048;8.306;2024-01-16T07:23:45;10.57;;;3.40;;
75090;SDS011;63674;48.048;8.306;2024-01-16T07:26:15;10.00;;;3.38;;
75090;SDS011;63674;48.048;8.306;2024-01-16T07:28:45;11.38;;;2.90;;
75090;SDS011;63674;48.048;8.306;2024-01-16T07:31:15;11.07;;;3.63;;
75090;SDS011;63674;48.048;8.306;2024-01-16T07:33:44;10.93;;;3.27;;
75090;SDS011;63674;48.048;8.306;2024-01-16T07:36:13;11.48;;;2.80;;
75090;SDS011;63674;48.048;8.306;2024-01-16T07:38:42;10.50;;;4.15;;
75090;SDS011;63674;48.048;8.306;2024-01-16T07:41:31;9.70;;;2.85;;
75090;SDS011;63674;48.048;8.306;2024-01-16T07:44:01;9.30;;;3.08;;
75090;SDS011;63674;48.048;8.306;2024-01-16T07:46:30;11.60;;;2.50;;
75090;SDS011;63674;48.048;8.306;2024-01-16T07:48:58;9.30;;;2.50;;
75090;SDS011;63674;48.048;8.306;2024-01-16T07:51:28;7.80;;;2.20;;
75090;SDS011;63674;48.048;8.306;2024-01-16T07:54:04;9.45;;;2.72;;
75090;SDS011;63674;48.048;8.306;2024-01-16T07:56:34;8.85;;;2.92;;
75090;SDS011;63674;48.048;8.306;2024-01-16T07:59:05;19.57;;;6.00;;
75090;SDS011;63674;48.048;8.306;2024-01-16T08:01:35;18.55;;;7.40;;
75090;SDS011;63674;48.048;8.306;2024-01-16T08:04:05;21.27;;;7.25;;
75090;SDS011;63674;48.048;8.306;2024-01-16T08:06:34;17.70;;;6.65;;
75090;SDS011;63674;48.048;8.306;2024-01-16T08:09:02;17.75;;;5.70;;
75090;SDS011;63674;48.048;8.306;2024-01-16T08:11:35;16.57;;;5.37;;
75090;SDS011;63674;48.048;8.306;2024-01-16T08:14:07;14.25;;;5.50;;
75090;SDS011;63674;48.048;8.306;2024-01-16T08:16:39;15.45;;;5.78;;
75090;SDS011;63674;48.048;8.306;2024-01-16T08:19:07;18.40;;;7.05;;
75090;SDS011;63674;48.048;8.306;2024-01-16T08:21:37;18.65;;;7.18;;
75090;SDS011;63674;48.048;8.306;2024-01-16T08:24:05;23.53;;;9.43;;
75090;SDS011;63674;48.048;8.306;2024-01-16T08:26:34;22.15;;;8.50;;
75090;SDS011;63674;48.048;8.306;2024-01-16T08:29:03;17.58;;;6.80;;
75090;SDS011;63674;48.048;8.306;2024-01-16T08:31:33;22.90;;;7.78;;
75090;SDS011;63674;48.048;8.306;2024-01-16T08:34:01;25.60;;;6.28;;
75090;SDS011;63674;48.048;8.306;2024-01-16T08:36:31;23.13;;;6.73;;
75090;SDS011;63674;48.048;8.306;2024-01-16T08:39:00;19.38;;;5.70;;
75090;SDS011;63674;48.048;8.306;2024-01-16T08:41:29;20.48;;;7.10;;
75090;SDS011;63674;48.048;8.306;2024-01-16T08:43:59;17.42;;;5.82;;
75090;SDS011;63674;48.048;8.306;2024-01-16T08:46:28;16.27;;;5.97;;
75090;SDS011;63674;48.048;8.306;2024-01-16T08:48:59;15.73;;;4.87;;
75090;SDS011;63674;48.048;8.306;2024-01-16T08:51:28;20.80;;;7.85;;
75090;SDS011;63674;48.048;8.306;2024-01-16T08:53:56;19.58;;;7.35;;
75090;SDS011;63674;48.048;8.306;2024-01-16T08:56:25;16.50;;;5.75;;
75090;SDS011;63674;48.048;8.306;2024-01-16T08:58:53;15.82;;;5.85;;
75090;SDS011;63674;48.048;8.306;2024-01-16T09:01:22;16.17;;;5.40;;
75090;SDS011;63674;48.048;8.306;2024-01-16T09:03:51;16.73;;;5.40;;
75090;SDS011;63674;48.048;8.306;2024-01-16T09:06:21;16.45;;;5.47;;
75090;SDS011;63674;48.048;8.306;2024-01-16T09:08:50;16.45;;;5.38;;
75090;SDS011;63674;48.048;8.306;2024-01-16T09:11:19;16.08;;;5.35;;
75090;SDS011;63674;48.048;8.306;2024-01-16T09:13:48;17.23;;;5.47;;
75090;SDS011;63674;48.048;8.306;2024-01-16T09:16:16;17.70;;;6.13;;
75090;SDS011;63674;48.048;8.306;2024-01-16T09:18:45;16.80;;;5.55;;
75090;SDS011;63674;48.048;8.306;2024-01-16T09:21:14;16.02;;;5.47;;
75090;SDS011;63674;48.048;8.306;2024-01-16T09:23:45;14.65;;;5.43;;
75090;SDS011;63674;48.048;8.306;2024-01-16T09:26:13;19.43;;;4.87;;
75090;SDS011;63674;48.048;8.306;2024-01-16T09:28:42;14.70;;;4.30;;
75090;SDS011;63674;48.048;8.306;2024-01-16T09:31:10;25.42;;;9.27;;
75090;SDS011;63674;48.048;8.306;2024-01-16T09:33:39;25.27;;;8.77;;
75090;SDS011;63674;48.048;8.306;2024-01-16T09:36:08;30.90;;;13.35;;
75090;SDS011;63674;48.048;8.306;2024-01-16T09:38:36;38.73;;;15.60;;
75090;SDS011;63674;48.048;8.306;2024-01-16T09:41:06;34.65;;;13.93;;
75090;SDS011;63674;48.048;8.306;2024-01-16T09:43:35;32.88;;;12.90;;
75090;SDS011;63674;48.048;8.306;2024-01-16T09:46:04;20.17;;;7.50;;
75090;SDS011;63674;48.048;8.306;2024-01-16T09:48:37;18.27;;;5.65;;
75090;SDS011;63674;48.048;8.306;2024-01-16T09:51:07;14.43;;;4.90;;
75090;SDS011;63674;48.048;8.306;2024-01-16T09:53:35;18.55;;;6.97;;
75090;SDS011;63674;48.048;8.306;2024-01-16T09:56:04;21.75;;;8.40;;
75090;SDS011;63674;48.048;8.306;2024-01-16T09:58:42;18.67;;;6.75;;
75090;SDS011;63674;48.048;8.306;2024-01-16T10:01:13;34.03;;;14.25;;
75090;SDS011;63674;48.048;8.306;2024-01-16T10:03:44;29.73;;;11.63;;
75090;SDS011;63674;48.048;8.306;2024-01-16T10:06:13;17.90;;;6.88;;
75090;SDS011;63674;48.048;8.306;2024-01-16T10:08:43;16.40;;;6.47;;
75090;SDS011;63674;48.048;8.306;2024-01-16T10:11:14;12.90;;;4.50;;
75090;SDS011;63674;48.048;8.306;2024-01-16T10:13:43;28.33;;;11.48;;
75090;SDS011;63674;48.048;8.306;2024-01-16T10:16:14;26.07;;;10.80;;
75090;SDS011;63674;48.048;8.306;2024-01-16T10:18:42;25.17;;;9.50;;
75090;SDS011;63674;48.048;8.306;2024-01-16T10:21:19;24.58;;;10.55;;
75090;SDS011;63674;48.048;8.306;2024-01-16T10:23:49;23.63;;;9.27;;
75090;SDS011;63674;48.048;8.306;2024-01-16T10:26:19;19.77;;;7.60;;
75090;SDS011;63674;48.048;8.306;2024-01-16T10:28:49;16.37;;;5.53;;
75090;SDS011;63674;48.048;8.306;2024-01-16T10:31:18;16.25;;;5.68;;
75090;SDS011;63674;48.048;8.306;2024-01-16T10:33:47;15.95;;;6.05;;
75090;SDS011;63674;48.048;8.306;2024-01-16T10:36:17;16.50;;;5.78;;
75090;SDS011;63674;48.048;8.306;2024-01-16T10:38:47;17.17;;;6.47;;
75090;SDS011;63674;48.048;8.306;2024-01-16T10:41:25;21.23;;;6.77;;
75090;SDS011;63674;48.048;8.306;2024-01-16T10:44:03;18.20;;;7.22;;
75090;SDS011;63674;48.048;8.306;2024-01-16T10:46:34;21.27;;;8.15;;
75090;SDS011;63674;48.048;8.306;2024-01-16T10:49:04;19.13;;;7.28;;
75090;SDS011;63674;48.048;8.306;2024-01-16T10:51:33;23.90;;;9.40;;
75090;SDS011;63674;48.048;8.306;2024-01-16T10:54:02;40.53;;;17.57;;
75090;SDS011;63674;48.048;8.306;2024-01-16T10:56:34;30.38;;;11.95;;
75090;SDS011;63674;48.048;8.306;2024-01-16T10:59:05;24.33;;;8.25;;
75090;SDS011;63674;48.048;8.306;2024-01-16T11:01:40;16.00;;;6.22;;
75090;SDS011;63674;48.048;8.306;2024-01-16T11:04:15;18.92;;;7.40;;
75090;SDS011;63674;48.048;8.306;2024-01-16T11:06:45;20.00;;;7.07;;
75090;SDS011;63674;48.048;8.306;2024-01-16T11:09:14;16.80;;;6.40;;
75090;SDS011;63674;48.048;8.306;2024-01-16T11:11:45;17.00;;;6.72;;
75090;SDS011;63674;48.048;8.306;2024-01-16T11:14:15;16.00;;;6.80;;
75090;SDS011;63674;48.048;8.306;2024-01-16T11:16:44;15.68;;;6.95;;
75090;SDS011;63674;48.048;8.306;2024-01-16T11:19:15;16.07;;;7.50;;
75090;SDS011;63674;48.048;8.306;2024-01-16T11:22:05;18.38;;;7.05;;
75090;SDS011;63674;48.048;8.306;2024-01-16T11:24:34;14.80;;;5.97;;
75090;SDS011;63674;48.048;8.306;2024-01-16T11:27:04;15.40;;;7.85;;
75090;SDS011;63674;48.048;8.306;2024-01-16T11:29:35;13.60;;;6.65;;
75090;SDS011;63674;48.048;8.306;2024-01-16T11:32:05;15.33;;;6.90;;
75090;SDS011;63674;48.048;8.306;2024-01-16T11:34:53;14.10;;;4.95;;
75090;SDS011;63674;48.048;8.306;2024-01-16T11:37:26;12.15;;;4.85;;
75090;SDS011;63674;48.048;8.306;2024-01-16T11:43:34;13.80;;;5.43;;
75090;SDS011;63674;48.048;8.306;2024-01-16T11:46:05;15.23;;;4.63;;
75090;SDS011;63674;48.048;8.306;2024-01-16T11:48:35;12.27;;;5.13;;
75090;SDS011;63674;48.048;8.306;2024-01-16T11:53:52;13.82;;;6.00;;
75090;SDS011;63674;48.048;8.306;2024-01-16T12:02:40;12.55;;;4.72;;
75090;SDS011;63674;48.048;8.306;2024-01-16T12:05:17;13.57;;;6.88;;
75090;SDS011;63674;48.048;8.306;2024-01-16T12:07:47;19.55;;;9.45;;
75090;SDS011;63674;48.048;8.306;2024-01-16T12:10:18;27.75;;;14.95;;
75090;SDS011;63674;48.048;8.306;2024-01-16T12:12:49;20.77;;;10.17;;
75090;SDS011;63674;48.048;8.306;2024-01-16T12:15:20;24.38;;;11.25;;
75090;SDS011;63674;48.048;8.306;2024-01-16T12:17:53;19.52;;;9.98;;
75090;SDS011;63674;48.048;8.306;2024-01-16T12:20:23;19.88;;;8.13;;
75090;SDS011;63674;48.048;8.306;2024-01-16T12:22:55;16.60;;;6.63;;
75090;SDS011;63674;48.048;8.306;2024-01-16T12:25:26;18.57;;;7.77;;
75090;SDS011;63674;48.048;8.306;2024-01-16T12:28:16;13.98;;;6.28;;
75090;SDS011;63674;48.048;8.306;2024-01-16T12:30:52;13.68;;;6.28;;
75090;SDS011;63674;48.048;8.306;2024-01-16T12:33:21;15.45;;;8.15;;
75090;SDS011;63674;48.048;8.306;2024-01-16T12:35:50;11.80;;;4.80;;
75090;SDS011;63674;48.048;8.306;2024-01-16T12:38:31;13.60;;;6.60;;
75090;SDS011;63674;48.048;8.306;2024-01-16T12:41:00;9.50;;;3.92;;
75090;SDS011;63674;48.048;8.306;2024-01-16T12:43:30;10.07;;;3.60;;
75090;SDS011;63674;48.048;8.306;2024-01-16T12:46:01;9.70;;;3.40;;
75090;SDS011;63674;48.048;8.306;2024-01-16T12:48:30;10.73;;;3.20;;
75090;SDS011;63674;48.048;8.306;2024-01-16T12:50:59;8.33;;;3.10;;
75090;SDS011;63674;48.048;8.306;2024-01-16T12:53:30;8.10;;;3.58;;
75090;SDS011;63674;48.048;8.306;2024-01-16T12:56:01;8.27;;;3.30;;
75090;SDS011;63674;48.048;8.306;2024-01-16T12:58:34;7.78;;;2.90;;
75090;SDS011;63674;48.048;8.306;2024-01-16T13:01:27;9.80;;;3.80;;
75090;SDS011;63674;48.048;8.306;2024-01-16T13:04:05;9.43;;;4.07;;
75090;SDS011;63674;48.048;8.306;2024-01-16T13:06:34;7.97;;;3.00;;
75090;SDS011;63674;48.048;8.306;2024-01-16T13:09:04;7.38;;;2.92;;
75090;SDS011;63674;48.048;8.306;2024-01-16T13:11:49;7.85;;;2.83;;
75090;SDS011;63674;48.048;8.306;2024-01-16T13:14:22;8.82;;;2.83;;
75090;SDS011;63674;48.048;8.306;2024-01-16T13:16:53;8.87;;;3.20;;
75090;SDS011;63674;48.048;8.306;2024-01-16T13:19:23;7.45;;;2.95;;
75090;SDS011;63674;48.048;8.306;2024-01-16T13:21:52;7.18;;;2.42;;
75090;SDS011;63674;48.048;8.306;2024-01-16T13:24:21;5.85;;;1.67;;
75090;SDS011;63674;48.048;8.306;2024-01-16T13:26:50;7.35;;;2.30;;
75090;SDS011;63674;48.048;8.306;2024-01-16T13:29:19;6.47;;;1.80;;
75090;SDS011;63674;48.048;8.306;2024-01-16T13:31:48;5.15;;;1.73;;
75090;SDS011;63674;48.048;8.306;2024-01-16T13:34:23;8.50;;;2.25;;
75090;SDS011;63674;48.048;8.306;2024-01-16T13:36:52;5.95;;;1.60;;
75090;SDS011;63674;48.048;8.306;2024-01-16T13:39:42;17.85;;;7.78;;
75090;SDS011;63674;48.048;8.306;2024-01-16T13:42:10;31.87;;;14.47;;
75090;SDS011;63674;48.048;8.306;2024-01-16T13:44:39;6.05;;;2.15;;
75090;SDS011;63674;48.048;8.306;2024-01-16T13:47:08;5.10;;;1.65;;
75090;SDS011;63674;48.048;8.306;2024-01-16T13:49:42;4.88;;;1.30;;
75090;SDS011;63674;48.048;8.306;2024-01-16T13:52:11;4.70;;;1.50;;
75090;SDS011;63674;48.048;8.306;2024-01-16T13:54:40;7.83;;;2.93;;
75090;SDS011;63674;48.048;8.306;2024-01-16T13:57:09;5.75;;;2.03;;
75090;SDS011;63674;48.048;8.306;2024-01-16T13:59:39;4.68;;;1.52;;
75090;SDS011;63674;48.048;8.306;2024-01-16T14:02:08;5.00;;;1.33;;
75090;SDS011;63674;48.048;8.306;2024-01-16T14:04:36;4.45;;;1.40;;
75090;SDS011;63674;48.048;8.306;2024-01-16T14:07:06;5.47;;;1.77;;
75090;SDS011;63674;48.048;8.306;2024-01-16T14:09:39;5.30;;;1.60;;
75090;SDS011;63674;48.048;8.306;2024-01-16T14:12:10;5.13;;;1.25;;
75090;SDS011;63674;48.048;8.306;2024-01-16T14:14:40;6.07;;;1.70;;
75090;SDS011;63674;48.048;8.306;2024-01-16T14:17:09;5.65;;;1.90;;
75090;SDS011;63674;48.048;8.306;2024-01-16T14:19:38;4.80;;;1.20;;
75090;SDS011;63674;48.048;8.306;2024-01-16T14:22:08;4.55;;;1.27;;
75090;SDS011;63674;48.048;8.306;2024-01-16T14:24:37;13.25;;;4.78;;
75090;SDS011;63674;48.048;8.306;2024-01-16T14:27:06;8.13;;;2.97;;
75090;SDS011;63674;48.048;8.306;2024-01-16T14:29:37;9.02;;;3.35;;
75090;SDS011;63674;48.048;8.306;2024-01-16T14:32:06;9.27;;;3.13;;
75090;SDS011;63674;48.048;8.306;2024-01-16T14:34:36;8.98;;;3.20;;
75090;SDS011;63674;48.048;8.306;2024-01-16T14:37:05;7.85;;;2.53;;
75090;SDS011;63674;48.048;8.306;2024-01-16T14:39:35;4.40;;;1.20;;
75090;SDS011;63674;48.048;8.306;2024-01-16T14:42:04;4.03;;;1.05;;
75090;SDS011;63674;48.048;8.306;2024-01-16T14:44:34;4.13;;;0.90;;
75090;SDS011;63674;48.048;8.306;2024-01-16T14:47:03;4.30;;;0.90;;
75090;SDS011;63674;48.048;8.306;2024-01-16T14:49:32;3.80;;;0.98;;
75090;SDS011;63674;48.048;8.306;2024-01-16T14:52:01;7.00;;;1.77;;
75090;SDS011;63674;48.048;8.306;2024-01-16T14:54:29;17.92;;;5.55;;
75090;SDS011;63674;48.048;8.306;2024-01-16T14:56:59;17.33;;;4.83;;
75090;SDS011;63674;48.048;8.306;2024-01-16T14:59:28;16.92;;;4.82;;
75090;SDS011;63674;48.048;8.306;2024-01-16T15:01:56;16.55;;;4.32;;
75090;SDS011;63674;48.048;8.306;2024-01-16T15:04:25;15.73;;;3.78;;
75090;SDS011;63674;48.048;8.306;2024-01-16T15:06:54;13.10;;;4.10;;
75090;SDS011;63674;48.048;8.306;2024-01-16T15:09:22;13.23;;;3.67;;
75090;SDS011;63674;48.048;8.306;2024-01-16T15:11:51;16.30;;;4.28;;
75090;SDS011;63674;48.048;8.306;2024-01-16T15:14:21;20.90;;;4.30;;
75090;SDS011;63674;48.048;8.306;2024-01-16T15:16:50;13.10;;;3.72;;